createdAt,value
2018-06-24T00:01:09.886Z,8.07
2018-06-24T00:03:40.173Z,5.83
2018-06-24T00:06:11.267Z,6.60
2018-06-24T00:08:42.286Z,11.23
2018-06-24T00:11:12.832Z,8.37
2018-06-24T00:13:43.229Z,9.00
2018-06-24T00:16:13.141Z,8.20
2018-06-24T00:18:43.076Z,11.83
2018-06-24T00:21:12.990Z,6.17
2018-06-24T00:23:42.968Z,7.27
2018-06-24T00:26:13.328Z,6.90
2018-06-24T00:28:43.491Z,9.10
2018-06-24T00:31:13.720Z,6.93
2018-06-24T00:33:45.588Z,5.90
2018-06-24T00:36:15.428Z,9.43
2018-06-24T00:38:46.040Z,7.60
2018-06-24T00:41:16.442Z,6.63
2018-06-24T00:43:46.598Z,6.57
2018-06-24T00:46:18.148Z,6.73
2018-06-24T00:48:48.005Z,6.63
2018-06-24T00:51:18.254Z,9.40
2018-06-24T00:53:48.277Z,7.27
2018-06-24T00:56:18.295Z,9.90
2018-06-24T00:58:48.259Z,6.63
2018-06-24T01:01:18.422Z,6.03
2018-06-24T01:03:48.429Z,7.67
2018-06-24T01:06:18.391Z,5.97
2018-06-24T01:08:48.165Z,9.50
2018-06-24T01:11:19.444Z,8.80
2018-06-24T01:13:49.664Z,7.30
2018-06-24T01:16:19.495Z,6.97
2018-06-24T01:18:50.799Z,7.97
2018-06-24T01:21:20.745Z,7.10
2018-06-24T01:23:50.829Z,6.67
2018-06-24T01:26:21.083Z,7.03
2018-06-24T01:28:51.220Z,6.37
2018-06-24T01:31:21.131Z,9.43
2018-06-24T01:33:51.165Z,8.20
2018-06-24T01:36:21.279Z,6.53
2018-06-24T01:38:51.049Z,11.10
2018-06-24T01:41:21.685Z,7.30
2018-06-24T01:43:57.795Z,6.07
2018-06-24T01:46:33.795Z,6.27
2018-06-24T01:49:05.774Z,5.93
2018-06-24T01:51:36.829Z,7.83
2018-06-24T01:54:17.753Z,7.40
2018-06-24T01:56:48.574Z,6.43
2018-06-24T01:59:21.020Z,8.97
2018-06-24T02:01:51.425Z,6.23
2018-06-24T02:04:21.427Z,7.70
2018-06-24T02:06:59.715Z,7.90
2018-06-24T02:09:30.006Z,10.67
2018-06-24T02:12:02.700Z,7.53
2018-06-24T02:14:42.533Z,8.00
2018-06-24T02:17:14.688Z,6.43
2018-06-24T02:20:03.825Z,7.27
2018-06-24T02:22:35.513Z,9.00
2018-06-24T02:25:11.727Z,6.90
2018-06-24T02:27:44.088Z,6.90
2018-06-24T02:30:16.393Z,8.57
2018-06-24T02:33:15.221Z,9.67
2018-06-24T02:35:52.752Z,6.50
2018-06-24T02:38:24.551Z,8.77
2018-06-24T02:40:58.125Z,8.67
2018-06-24T02:43:32.402Z,7.90
2018-06-24T02:46:10.336Z,8.77
2018-06-24T02:48:41.378Z,8.40
2018-06-24T02:51:15.911Z,9.77
2018-06-24T02:53:48.474Z,8.40
2018-06-24T02:56:20.450Z,10.73
2018-06-24T02:58:59.325Z,8.63
2018-06-24T03:01:41.371Z,8.47
2018-06-24T03:04:17.418Z,10.37
2018-06-24T03:06:50.476Z,7.47
2018-06-24T03:09:27.058Z,10.10
2018-06-24T03:12:03.831Z,8.93
2018-06-24T03:14:51.464Z,7.60
2018-06-24T03:17:25.335Z,8.03
2018-06-24T03:19:57.742Z,8.33
2018-06-24T03:22:31.255Z,8.93
2018-06-24T03:25:04.048Z,7.97
2018-06-24T03:27:39.972Z,7.73
2018-06-24T03:30:11.284Z,7.57
2018-06-24T03:32:44.868Z,8.37
2018-06-24T03:35:16.936Z,10.37
2018-06-24T03:37:48.290Z,10.70
2018-06-24T03:40:23.757Z,7.50
2018-06-24T03:42:55.318Z,8.40
2018-06-24T03:45:58.650Z,8.50
2018-06-24T03:48:32.079Z,7.63
2018-06-24T03:51:03.236Z,9.03
2018-06-24T03:53:34.462Z,10.13
2018-06-24T03:56:05.909Z,9.93
2018-06-24T03:58:36.993Z,7.40
2018-06-24T04:01:10.382Z,8.23
2018-06-24T04:03:44.375Z,8.33
2018-06-24T04:06:14.753Z,8.80
2018-06-24T04:08:45.598Z,10.10
2018-06-24T04:13:55.739Z,7.53
2018-06-24T04:16:26.996Z,7.77
2018-06-24T04:19:05.331Z,7.20
2018-06-24T04:21:41.342Z,6.90
2018-06-24T04:24:11.138Z,7.23
2018-06-24T04:26:42.974Z,10.10
2018-06-24T04:29:16.843Z,8.27
2018-06-24T04:31:47.838Z,7.23
2018-06-24T04:34:24.297Z,9.67
2018-06-24T04:36:57.317Z,6.93
2018-06-24T04:39:29.454Z,8.60
2018-06-24T04:42:00.903Z,8.63
2018-06-24T04:47:15.854Z,7.57
2018-06-24T04:49:50.061Z,9.73
2018-06-24T04:52:24.448Z,7.93
2018-06-24T04:55:05.931Z,9.63
2018-06-24T04:57:47.726Z,7.30
2018-06-24T05:00:20.506Z,6.87
2018-06-24T05:02:51.544Z,10.60
2018-06-24T05:05:22.192Z,6.47
2018-06-24T05:07:53.521Z,6.90
2018-06-24T05:10:27.004Z,5.33
2018-06-24T05:13:04.563Z,5.57
2018-06-24T05:15:39.355Z,6.17
2018-06-24T05:18:12.278Z,6.80
2018-06-24T05:20:43.706Z,7.63
2018-06-24T05:23:15.049Z,6.37
2018-06-24T05:25:45.146Z,4.80
2018-06-24T05:28:15.869Z,5.43
2018-06-24T05:30:48.511Z,4.30
2018-06-24T05:33:21.582Z,10.30
2018-06-24T05:35:52.741Z,8.57
2018-06-24T05:38:27.930Z,7.47
2018-06-24T05:41:02.286Z,9.70
2018-06-24T05:43:33.861Z,12.17
2018-06-24T05:46:04.495Z,14.47
2018-06-24T05:48:35.852Z,14.13
2018-06-24T05:51:06.613Z,18.13
2018-06-24T05:53:38.253Z,13.73
2018-06-24T05:56:10.487Z,18.07
2018-06-24T05:58:42.327Z,16.27
2018-06-24T06:01:16.661Z,22.17
2018-06-24T06:03:49.605Z,20.37
2018-06-24T06:06:23.370Z,23.80
2018-06-24T06:08:55.387Z,20.97
2018-06-24T06:11:27.654Z,19.67
2018-06-24T06:13:57.585Z,22.07
2018-06-24T06:16:32.818Z,24.10
2018-06-24T06:19:02.924Z,22.27
2018-06-24T06:21:39.541Z,23.60
2018-06-24T06:24:14.096Z,21.43
2018-06-24T06:26:48.456Z,20.50
2018-06-24T06:29:20.516Z,21.37
2018-06-24T06:31:54.328Z,19.73
2018-06-24T06:34:27.243Z,20.40
2018-06-24T06:36:58.450Z,24.17
2018-06-24T06:39:29.656Z,19.80
2018-06-24T06:42:04.533Z,22.73
2018-06-24T06:44:35.695Z,22.20
2018-06-24T06:47:08.143Z,24.33
2018-06-24T06:49:41.770Z,26.60
2018-06-24T06:52:15.484Z,26.27
2018-06-24T06:54:55.334Z,25.20
2018-06-24T06:57:26.063Z,25.63
2018-06-24T06:59:56.467Z,24.63
2018-06-24T07:02:27.978Z,25.17
2018-06-24T07:05:05.013Z,25.33
2018-06-24T07:07:37.746Z,24.07
2018-06-24T07:10:14.869Z,21.67
2018-06-24T07:12:50.098Z,20.33
2018-06-24T07:15:26.615Z,20.47
2018-06-24T07:17:59.445Z,27.37
2018-06-24T07:20:31.737Z,22.47
2018-06-24T07:23:02.319Z,22.60
2018-06-24T07:26:37.341Z,24.90
2018-06-24T07:29:10.677Z,26.93
2018-06-24T07:31:46.469Z,22.37
2018-06-24T07:34:16.584Z,19.13
2018-06-24T07:36:49.627Z,21.63
2018-06-24T07:39:21.720Z,21.60
2018-06-24T07:41:53.156Z,18.73
2018-06-24T07:44:31.702Z,22.37
2018-06-24T07:47:05.401Z,21.63
2018-06-24T07:49:38.930Z,18.37
2018-06-24T07:52:11.645Z,19.57
2018-06-24T07:54:43.364Z,21.53
2018-06-24T07:57:14.342Z,16.47
2018-06-24T07:59:52.204Z,21.20
2018-06-24T08:02:31.685Z,20.00
2018-06-24T08:05:04.841Z,17.00
2018-06-24T08:07:36.550Z,16.50
2018-06-24T08:10:10.263Z,19.57
2018-06-24T08:12:43.572Z,20.83
2018-06-24T08:15:17.065Z,19.23
2018-06-24T08:17:51.079Z,17.40
2018-06-24T08:20:24.929Z,17.00
2018-06-24T08:22:56.655Z,20.30
2018-06-24T08:25:29.543Z,21.83
2018-06-24T08:28:10.329Z,21.90
2018-06-24T08:30:48.118Z,17.33
2018-06-24T08:33:20.441Z,20.70
2018-06-24T08:35:53.473Z,21.07
2018-06-24T08:38:27.842Z,18.60
2018-06-24T08:41:02.698Z,15.83
2018-06-24T08:43:37.690Z,24.00
2018-06-24T08:46:12.896Z,17.67
2018-06-24T08:48:50.101Z,18.23
2018-06-24T08:51:26.381Z,21.13
2018-06-24T08:54:00.831Z,22.27
2018-06-24T08:56:34.683Z,20.97
2018-06-24T08:59:08.037Z,25.50
2018-06-24T09:01:48.801Z,26.67
2018-06-24T09:04:25.359Z,26.23
2018-06-24T09:06:58.328Z,23.67
2018-06-24T09:12:09.913Z,23.77
2018-06-24T09:14:56.651Z,24.63
2018-06-24T09:17:32.790Z,22.80
2018-06-24T09:20:05.693Z,24.97
2018-06-24T09:22:39.975Z,25.73
2018-06-24T09:25:17.117Z,24.03
2018-06-24T09:28:10.747Z,20.73
2018-06-24T09:30:43.157Z,20.47
2018-06-24T09:33:16.439Z,24.27
2018-06-24T09:35:49.904Z,22.10
2018-06-24T09:38:24.461Z,19.80
2018-06-24T09:40:57.796Z,19.63
2018-06-24T09:43:30.700Z,18.97
2018-06-24T09:46:05.443Z,22.80
2018-06-24T09:48:39.729Z,22.07
2018-06-24T09:51:27.364Z,22.03
2018-06-24T09:54:05.638Z,19.63
2018-06-24T09:57:01.110Z,20.40
2018-06-24T09:59:36.731Z,18.57
2018-06-24T10:02:15.199Z,22.90
2018-06-24T10:04:47.300Z,16.97
2018-06-24T10:07:55.574Z,18.97
2018-06-24T10:10:29.487Z,16.77
2018-06-24T10:13:03.797Z,17.17
2018-06-24T10:15:41.608Z,15.60
2018-06-24T10:18:15.429Z,18.43
2018-06-24T10:20:48.740Z,19.47
2018-06-24T10:23:22.468Z,17.00
2018-06-24T10:26:08.120Z,15.80
2018-06-24T10:29:00.556Z,19.10
2018-06-24T10:31:51.993Z,15.60
2018-06-24T10:37:42.018Z,15.87
2018-06-24T10:40:31.181Z,17.00
2018-06-24T10:43:35.031Z,14.07
2018-06-24T10:46:11.733Z,14.87
2018-06-24T10:48:46.117Z,17.83
2018-06-24T10:51:24.063Z,17.57
2018-06-24T10:54:20.741Z,16.30
2018-06-24T10:57:01.354Z,16.63
2018-06-24T10:59:53.784Z,17.23
2018-06-24T11:02:40.601Z,15.13
2018-06-24T11:05:25.381Z,17.63
2018-06-24T11:08:04.664Z,11.87
2018-06-24T11:11:13.254Z,10.60
2018-06-24T11:16:35.396Z,13.40
2018-06-24T11:19:12.600Z,10.50
2018-06-24T11:21:47.442Z,13.73
2018-06-24T11:24:21.961Z,11.83
2018-06-24T11:27:00.829Z,12.00
2018-06-24T11:29:44.930Z,14.07
2018-06-24T11:32:23.464Z,14.20
2018-06-24T11:35:11.898Z,13.50
2018-06-24T11:37:49.903Z,12.67
2018-06-24T11:40:56.680Z,17.03
2018-06-24T11:43:34.026Z,14.70
2018-06-24T11:46:40.814Z,14.63
2018-06-24T11:49:37.512Z,16.30
2018-06-24T11:55:11.774Z,10.60
2018-06-24T11:57:59.340Z,13.27
2018-06-24T12:00:37.323Z,12.63
2018-06-24T12:03:18.368Z,10.53
2018-06-24T12:06:12.346Z,10.90
2018-06-24T12:08:46.697Z,10.10
2018-06-24T12:11:22.514Z,11.23
2018-06-24T12:14:13.622Z,8.20
2018-06-24T12:17:04.842Z,9.90
2018-06-24T12:19:43.454Z,8.63
2018-06-24T12:22:41.437Z,11.67
2018-06-24T12:25:22.073Z,10.50
2018-06-24T12:27:55.120Z,8.80
2018-06-24T12:30:29.899Z,6.80
2018-06-24T12:33:04.404Z,8.13
2018-06-24T12:41:02.594Z,7.63
2018-06-24T12:43:41.493Z,12.77
2018-06-24T12:49:15.802Z,9.57
2018-06-24T12:51:48.652Z,9.10
2018-06-24T12:54:36.542Z,7.33
2018-06-24T12:57:22.002Z,9.57
2018-06-24T12:59:55.735Z,8.53
2018-06-24T13:02:32.166Z,10.37
2018-06-24T13:05:14.409Z,7.40
2018-06-24T13:07:49.072Z,9.43
2018-06-24T13:13:07.860Z,6.90
2018-06-24T13:15:45.416Z,8.53
2018-06-24T13:18:33.797Z,8.77
2018-06-24T13:21:12.631Z,7.80
2018-06-24T13:23:57.495Z,6.17
2018-06-24T13:26:46.240Z,10.30
2018-06-24T13:29:24.824Z,7.13
2018-06-24T13:32:01.247Z,9.13
2018-06-24T13:34:43.046Z,8.70
2018-06-24T13:37:18.409Z,6.77
2018-06-24T13:39:52.504Z,8.13
2018-06-24T13:42:28.000Z,6.10
2018-06-24T13:45:00.622Z,9.57
2018-06-24T13:47:38.074Z,8.70
2018-06-24T13:50:16.377Z,9.33
2018-06-24T13:52:59.761Z,7.93
2018-06-24T13:55:37.694Z,8.07
2018-06-24T13:58:17.315Z,6.90
2018-06-24T14:00:54.492Z,6.30
2018-06-24T14:03:29.348Z,8.13
2018-06-24T14:06:07.310Z,7.33
2018-06-24T14:08:48.367Z,4.53
2018-06-24T14:11:21.901Z,5.43
2018-06-24T14:13:58.887Z,4.53
2018-06-24T14:16:36.803Z,6.23
2018-06-24T14:19:13.313Z,6.03
2018-06-24T14:22:05.297Z,5.67
2018-06-24T14:24:41.633Z,4.07
2018-06-24T14:27:26.288Z,6.67
2018-06-24T14:29:57.616Z,5.13
2018-06-24T14:32:32.913Z,4.67
2018-06-24T14:35:05.548Z,4.03
2018-06-24T14:37:39.918Z,3.73
2018-06-24T14:40:18.085Z,7.80
2018-06-24T14:42:56.293Z,8.20
2018-06-24T14:45:29.463Z,3.83
2018-06-24T14:48:07.543Z,5.33
2018-06-24T14:50:42.796Z,6.20
2018-06-24T14:53:15.580Z,5.00
2018-06-24T14:55:50.974Z,3.23
2018-06-24T14:58:29.751Z,6.47
2018-06-24T15:01:04.388Z,4.67
2018-06-24T15:03:36.928Z,3.90
2018-06-24T15:06:15.451Z,6.10
2018-06-24T15:08:50.461Z,3.90
2018-06-24T15:11:28.725Z,3.10
2018-06-24T15:14:03.898Z,6.50
2018-06-24T15:16:36.693Z,4.53
2018-06-24T15:19:12.994Z,7.03
2018-06-24T15:21:49.747Z,5.17
2018-06-24T15:24:24.395Z,9.20
2018-06-24T15:27:02.337Z,3.57
2018-06-24T15:29:39.653Z,4.87
2018-06-24T15:32:16.320Z,5.40
2018-06-24T15:34:54.765Z,5.00
2018-06-24T15:37:28.657Z,5.37
2018-06-24T15:40:03.535Z,4.23
2018-06-24T15:45:16.220Z,7.17
2018-06-24T15:47:49.045Z,5.17
2018-06-24T15:50:23.098Z,4.63
2018-06-24T15:53:00.113Z,7.90
2018-06-24T15:55:38.490Z,4.43
2018-06-24T15:58:13.676Z,4.60
2018-06-24T16:00:50.565Z,4.07
2018-06-24T16:03:26.784Z,3.53
2018-06-24T16:05:58.532Z,6.10
2018-06-24T16:08:35.579Z,5.80
2018-06-24T16:11:13.352Z,3.43
2018-06-24T16:13:46.897Z,6.03
2018-06-24T16:16:24.059Z,3.83
2018-06-24T16:18:59.728Z,7.10
2018-06-24T16:21:45.455Z,7.10
2018-06-24T16:24:23.470Z,8.13
2018-06-24T16:27:03.812Z,7.73
2018-06-24T16:29:58.365Z,7.40
2018-06-24T16:35:21.309Z,6.50
2018-06-24T16:37:58.893Z,5.33
2018-06-24T16:40:34.606Z,6.30
2018-06-24T16:45:52.500Z,3.83
2018-06-24T16:48:27.340Z,5.63
2018-06-24T16:51:03.393Z,5.73
2018-06-24T16:56:27.677Z,7.23
2018-06-24T16:59:02.546Z,6.90
2018-06-24T17:01:40.311Z,6.83
2018-06-24T17:06:51.619Z,5.47
2018-06-24T17:09:26.959Z,5.33
2018-06-24T17:12:10.988Z,3.90
2018-06-24T17:14:46.028Z,8.10
2018-06-24T17:17:18.230Z,4.37
2018-06-24T17:20:23.454Z,5.73
2018-06-24T17:22:58.387Z,5.13
2018-06-24T17:25:38.322Z,5.87
2018-06-24T17:28:15.903Z,6.93
2018-06-24T17:30:48.573Z,9.17
2018-06-24T17:33:21.905Z,5.63
2018-06-24T17:36:04.952Z,5.10
2018-06-24T17:38:51.116Z,6.30
2018-06-24T17:41:28.190Z,7.60
2018-06-24T17:44:05.599Z,8.00
2018-06-24T17:46:39.806Z,7.17
2018-06-24T17:54:24.458Z,4.90
2018-06-24T17:56:59.210Z,4.40
2018-06-24T17:59:39.835Z,6.27
2018-06-24T18:02:14.808Z,8.13
2018-06-24T18:04:55.010Z,7.67
2018-06-24T18:07:31.861Z,5.67
2018-06-24T18:10:16.516Z,6.60
2018-06-24T18:12:51.667Z,4.93
2018-06-24T18:15:24.553Z,6.70
2018-06-24T18:17:55.585Z,5.40
2018-06-24T18:20:30.412Z,3.57
2018-06-24T18:23:09.006Z,4.93
2018-06-24T18:25:45.184Z,4.10
2018-06-24T18:28:20.568Z,5.47
2018-06-24T18:30:53.621Z,2.90
2018-06-24T18:33:41.748Z,3.53
2018-06-24T18:36:20.652Z,6.73
2018-06-24T18:38:53.532Z,4.03
2018-06-24T18:41:26.178Z,3.67
2018-06-24T18:44:07.863Z,4.97
2018-06-24T18:46:53.564Z,5.30
2018-06-24T18:49:30.049Z,5.87
2018-06-24T18:52:05.024Z,4.57
2018-06-24T18:54:41.464Z,3.53
2018-06-24T18:57:19.565Z,4.23
2018-06-24T18:59:53.724Z,4.60
2018-06-24T19:02:28.983Z,6.77
2018-06-24T19:05:04.731Z,3.90
2018-06-24T19:07:42.210Z,4.77
2018-06-24T19:10:19.967Z,3.77
2018-06-24T19:12:55.305Z,4.03
2018-06-24T19:15:33.474Z,5.67
2018-06-24T19:18:08.658Z,8.80
2018-06-24T19:20:49.224Z,4.17
2018-06-24T19:23:36.112Z,4.63
2018-06-24T19:26:12.466Z,5.40
2018-06-24T19:28:48.589Z,4.50
2018-06-24T19:31:20.974Z,4.53
2018-06-24T19:34:00.496Z,4.17
2018-06-24T19:36:33.582Z,4.60
2018-06-24T19:39:12.948Z,4.73
2018-06-24T19:41:49.611Z,7.93
2018-06-24T19:44:23.839Z,4.83
2018-06-24T19:47:00.481Z,5.43
2018-06-24T19:49:33.692Z,3.73
2018-06-24T19:52:09.345Z,5.23
2018-06-24T19:54:47.731Z,5.60
2018-06-24T19:57:21.212Z,5.03
2018-06-24T19:59:56.826Z,5.33
2018-06-24T20:02:31.489Z,4.40
2018-06-24T20:05:14.738Z,6.80
2018-06-24T20:07:49.144Z,7.37
2018-06-24T20:10:27.369Z,5.43
2018-06-24T20:13:05.078Z,4.17
2018-06-24T20:15:45.342Z,5.63
2018-06-24T20:18:20.451Z,5.30
2018-06-24T20:20:56.061Z,7.40
2018-06-24T20:26:20.014Z,5.07
2018-06-24T20:28:56.074Z,4.90
2018-06-24T20:31:29.586Z,6.13
2018-06-24T20:34:11.883Z,5.40
2018-06-24T20:36:51.964Z,7.60
2018-06-24T20:39:27.200Z,5.80
2018-06-24T20:45:30.408Z,5.73
2018-06-24T20:48:16.985Z,5.70
2018-06-24T20:50:58.573Z,5.70
2018-06-24T20:53:41.298Z,5.73
2018-06-24T20:56:43.219Z,5.13
2018-06-24T21:00:39.246Z,6.23
2018-06-24T21:03:11.540Z,6.27
2018-06-24T21:05:49.668Z,8.07
2018-06-24T21:08:20.640Z,9.87
2018-06-24T21:10:58.803Z,5.83
2018-06-24T21:13:37.949Z,8.67
2018-06-24T21:16:13.700Z,7.83
2018-06-24T21:18:54.949Z,9.10
2018-06-24T21:21:44.178Z,7.33
2018-06-24T21:24:24.613Z,8.23
2018-06-24T21:27:21.836Z,6.67
2018-06-24T21:29:57.718Z,5.70
2018-06-24T21:32:41.953Z,7.73
2018-06-24T21:35:13.921Z,7.90
2018-06-24T21:37:47.561Z,6.10
2018-06-24T21:40:26.853Z,6.97
2018-06-24T21:43:02.980Z,7.57
2018-06-24T21:45:37.003Z,6.10
2018-06-24T21:48:27.405Z,6.07
2018-06-24T21:51:03.421Z,6.63
2018-06-24T21:53:39.091Z,6.10
2018-06-24T21:56:18.701Z,7.30
2018-06-24T21:58:53.491Z,4.43
2018-06-24T22:01:30.845Z,7.10
2018-06-24T22:04:07.347Z,6.90
2018-06-24T22:09:26.918Z,6.93
2018-06-24T22:12:06.344Z,5.57
2018-06-24T22:14:40.994Z,5.17
2018-06-24T22:17:15.735Z,6.33
2018-06-24T22:19:50.108Z,6.83
2018-06-24T22:22:22.572Z,6.83
2018-06-24T22:24:53.805Z,12.77
2018-06-24T22:27:28.998Z,6.53
2018-06-24T22:30:09.914Z,7.53
2018-06-24T22:32:51.550Z,6.87
2018-06-24T22:39:07.014Z,11.23
2018-06-24T22:41:40.940Z,9.80
2018-06-24T22:44:17.084Z,8.73
2018-06-24T22:46:47.587Z,10.03
2018-06-24T22:49:48.260Z,11.13
2018-06-24T22:52:20.567Z,7.63
2018-06-24T22:54:55.916Z,8.23
2018-06-24T22:57:30.685Z,11.17
2018-06-24T23:00:20.593Z,9.57
2018-06-24T23:02:50.994Z,11.83
2018-06-24T23:05:24.717Z,12.60
2018-06-24T23:07:59.179Z,11.43
2018-06-24T23:10:58.135Z,13.90
2018-06-24T23:13:30.518Z,14.80
2018-06-24T23:16:03.272Z,11.93
2018-06-24T23:18:35.291Z,10.60
2018-06-24T23:21:09.691Z,9.50
2018-06-24T23:23:41.511Z,7.90
2018-06-24T23:26:14.924Z,8.90
2018-06-24T23:28:48.463Z,8.27
2018-06-24T23:31:19.431Z,7.97
2018-06-24T23:33:52.131Z,7.83
2018-06-24T23:36:23.703Z,8.40
2018-06-24T23:38:57.042Z,10.43
2018-06-24T23:41:28.950Z,11.90
2018-06-24T23:43:59.673Z,12.13
2018-06-24T23:46:33.739Z,10.13
2018-06-24T23:49:05.125Z,12.23
2018-06-24T23:51:38.716Z,10.73
2018-06-24T23:54:10.381Z,11.77
